Latest Weather Observations for Sydney Olympic Park

IDN60801

Issued at 7:03 pm EST Saturday 30 July 2016 (issued every 30 minutes, with the page automatically refreshed every 10 minutes)

About weather observations | Map of weather stations | Latest weather observations for NSW | Other Formats
Station Details ID: 066212 Name: SYDNEY OLYMPIC PARK AWS (ARCHERY CENTRE) Lat: -33.83 Lon: 151.07 Height: 4.0 m
Data from the previous 72 hours. | See also: Recent months at Sydney Olympic Park
Date/Time
EST
Temp
°C
App
Temp
°C
Dew
Point
°C
Rel
Hum
%
Delta-T
°C
Wind Press
QNH
hPa
Press
MSL
hPa
Rain since
9am
mm
Dir  Spd
km/h
Gust
km/h
Spd
kts
Gust
kts
30/07:00pm 11.8 11.5 8.8 82 1.5 CALM 0 0 0 0 - - 0.0
30/06:30pm 13.2 13.0 8.9 75 2.2 CALM 0 0 0 0 - - 0.0
30/06:00pm 15.1 13.9 9.5 69 2.9 ENE 6 13 3 7 - - 0.0
30/05:30pm 15.4 13.9 9.3 67 3.1 E 7 13 4 7 - - 0.0
30/05:00pm 16.1 13.4 9.1 63 3.6 E 13 17 7 9 - - 0.0
30/04:30pm 16.7 15.1 8.9 60 4.0 ESE 7 11 4 6 - - 0.0
30/04:00pm 17.3 14.9 8.7 57 4.4 E 11 15 6 8 - - 0.0
30/03:30pm 17.6 15.6 8.5 55 4.7 E 9 13 5 7 - - 0.0
30/03:00pm 17.2 15.1 8.1 55 4.6 E 9 13 5 7 - - 0.0
30/02:30pm 18.2 16.2 8.7 54 4.9 E 9 15 5 8 - - 0.0
30/02:00pm 18.9 17.3 8.0 49 5.6 NE 6 9 3 5 - - 0.0
30/01:30pm 18.5 16.7 7.3 48 5.7 NE 6 9 3 5 - - 0.0
30/01:00pm 17.9 16.7 8.2 53 5.0 SSE 4 9 2 5 - - 0.0
30/12:30pm 17.3 15.3 6.2 48 5.4 SW 6 9 3 5 - - 0.0
30/12:00pm 17.2 14.9 7.3 52 5.0 WNW 9 15 5 8 - - 0.0
30/11:30am 16.3 14.0 7.3 55 4.5 WNW 9 19 5 10 - - 0.0
30/11:00am 15.1 12.5 5.9 54 4.4 WNW 9 15 5 8 - - 0.0
30/10:30am 13.4 10.1 4.8 56 4.0 W 11 19 6 10 - - 0.0
30/10:00am 13.0 9.6 5.7 61 3.4 NW 13 19 7 10 - - 0.0
30/09:30am 11.7 8.1 5.1 64 3.0 WNW 13 19 7 10 - - 0.0
30/09:00am 10.8 7.6 4.9 67 2.7 WNW 11 15 6 8 - - 0.0
30/08:30am 9.5 5.8 4.5 71 2.2 WNW 13 19 7 10 - - 0.0
30/08:00am 8.0 5.2 5.3 83 1.2 WNW 9 13 5 7 - - 0.0
30/07:30am 6.1 3.2 4.7 91 0.6 NW 9 15 5 8 - - 0.0
30/07:00am 5.7 3.2 4.5 92 0.5 WNW 7 11 4 6 - - 0.0
30/06:30am 5.8 2.9 4.9 94 0.4 WNW 9 11 5 6 - - 0.0
30/06:00am 5.8 3.4 5.1 95 0.3 NW 7 11 4 6 - - 0.0
30/05:30am 5.6 3.1 5.0 96 0.3 NW 7 9 4 5 - - 0.0
30/05:00am 5.2 2.8 4.3 94 0.4 WNW 6 7 3 4 - - 0.0
30/04:30am 5.5 3.2 4.6 94 0.4 NW 6 9 3 5 - - 0.0
30/04:00am 5.7 3.2 4.8 94 0.4 NW 7 9 4 5 - - 0.0
30/03:30am 5.6 3.1 4.7 94 0.4 NW 7 11 4 6 - - 0.0
30/03:19am 5.5 3.1 4.5 93 0.4 NW 6 9 3 5 - - 0.0
30/03:01am 5.6 3.7 4.7 94 0.4 NW 4 7 2 4 - - 0.0
30/03:00am 5.6 4.0 4.7 94 0.4 NW 2 7 1 4 - - 0.0
30/02:30am 5.7 4.1 4.5 92 0.5 NNW 2 7 1 4 - - 0.0
30/02:00am 6.4 4.1 4.9 90 0.7 NNW 6 7 3 4 - - 0.0
30/01:30am 6.6 5.1 4.8 88 0.8 NW 2 9 1 5 - - 0.0
30/01:00am 5.8 4.6 4.6 92 0.5 CALM 0 4 0 2 - - 0.0
30/12:30am 6.3 5.2 4.9 91 0.6 CALM 0 0 0 0 - - 0.0
30/12:00am 6.5 5.3 4.8 89 0.7 CALM 0 0 0 0 - - 0.0
 
Date/Time
EST
Temp
°C
App
Temp
°C
Dew
Point
°C
Rel
Hum
%
Delta-T
°C
Wind Press
QNH
hPa
Press
MSL
hPa
Rain since
9am
mm
Dir  Spd
km/h
Gust
km/h
Spd
kts
Gust
kts
29/11:30pm 6.9 5.8 5.2 89 0.7 CALM 0 0 0 0 - - 0.0
29/11:00pm 7.1 6.0 4.9 86 1.0 CALM 0 0 0 0 - - 0.0
29/10:30pm 7.9 6.3 4.5 79 1.5 NW 2 7 1 4 - - 0.0
29/10:00pm 8.4 6.7 4.0 74 1.9 NNW 2 6 1 3 - - 0.0
29/09:30pm 9.1 8.0 4.9 75 1.9 CALM 0 6 0 3 - - 0.0
29/09:00pm 10.0 7.7 4.6 69 2.4 WNW 6 11 3 6 - - 0.0
29/08:30pm 11.1 8.6 3.9 61 3.2 WNW 6 13 3 7 - - 0.0
29/08:00pm 12.0 9.4 4.0 58 3.6 W 7 15 4 8 - - 0.0
29/07:30pm 12.7 9.2 3.6 54 4.1 WSW 11 19 6 10 - - 0.0
29/07:00pm 13.3 9.1 3.7 52 4.3 SW 15 22 8 12 - - 0.0
29/06:30pm 13.8 9.9 3.6 50 4.6 WSW 13 20 7 11 - - 0.0
29/06:00pm 14.1 11.1 4.1 51 4.6 W 9 17 5 9 - - 0.0
29/05:30pm 15.2 11.8 4.0 47 5.2 W 11 19 6 10 - - 0.0
29/05:00pm 16.2 12.8 3.9 44 5.7 WSW 11 19 6 10 - - 0.0
29/04:30pm 17.2 13.5 4.2 42 6.1 WSW 13 20 7 11 - - 0.0
29/04:00pm 18.2 14.9 4.4 40 6.6 WSW 11 17 6 9 - - 0.0
29/03:30pm 19.0 16.1 4.7 39 6.9 W 9 17 5 9 - - 0.0
29/03:00pm 18.6 16.2 4.4 39 6.8 NNW 6 11 3 6 - - 0.0
29/02:30pm 18.3 15.0 4.5 40 6.6 NW 11 17 6 9 - - 0.0
29/02:00pm 17.6 13.7 3.5 39 6.6 NW 13 19 7 10 - - 0.0
29/01:30pm 17.3 14.4 4.9 44 5.9 NW 9 15 5 8 - - 0.0
29/01:00pm 16.7 13.6 3.7 42 6.0 NW 9 15 5 8 - - 0.0
29/12:30pm 16.3 13.5 5.0 47 5.4 NW 9 15 5 8 - - 0.0
29/12:00pm 15.1 11.6 3.6 46 5.2 NW 11 19 6 10 - - 0.0
29/11:30am 13.9 10.0 3.4 49 4.7 NW 13 20 7 11 - - 0.0
29/11:00am 13.2 9.4 3.8 53 4.2 NW 13 19 7 10 - - 0.0
29/10:30am 12.4 9.3 3.4 54 4.0 WNW 9 17 5 9 - - 0.0
29/10:00am 12.2 9.2 4.2 58 3.6 WNW 9 17 5 9 - - 0.0
29/09:30am 11.0 7.6 4.2 63 3.0 WNW 11 15 6 8 - - 0.0
29/09:00am 10.3 7.4 4.9 69 2.4 WNW 9 15 5 8 - - 0.0
29/08:30am 9.1 6.5 4.3 72 2.1 NW 7 11 4 6 - - 0.0
29/08:00am 7.2 6.1 4.9 85 1.0 CALM 0 0 0 0 - - 0.0
29/07:30am 4.6 3.1 3.1 90 0.6 CALM 0 0 0 0 - - 0.0
29/07:00am 4.2 2.6 2.7 90 0.6 CALM 0 0 0 0 - - 0.0
29/06:30am 4.5 1.9 3.0 90 0.6 NW 6 11 3 6 - - 0.0
29/06:00am 4.8 1.7 3.8 93 0.4 WNW 9 13 5 7 - - 0.0
29/05:30am 4.1 1.8 2.6 90 0.6 WNW 4 11 2 6 - - 0.0
29/05:00am 4.7 3.2 3.0 89 0.7 CALM 0 6 0 3 - - 0.0
29/04:30am 5.3 3.5 3.5 88 0.7 WNW 2 7 1 4 - - 0.0
29/04:00am 5.4 2.7 3.6 88 0.8 NNW 7 11 4 6 - - 0.0
29/03:30am 5.3 2.7 3.3 87 0.8 NNW 6 7 3 4 - - 0.0
29/03:00am 5.6 3.9 3.8 88 0.8 WNW 2 7 1 4 - - 0.0
29/02:30am 6.0 3.3 3.8 86 0.9 NW 7 9 4 5 - - 0.0
29/02:00am 5.8 4.2 4.3 90 0.6 WNW 2 7 1 4 - - 0.0
29/01:30am 5.9 4.2 3.9 87 0.8 NW 2 6 1 3 - - 0.0
29/01:00am 6.6 4.1 3.6 81 1.3 NNW 6 7 3 4 - - 0.0
29/12:30am 7.5 5.3 3.6 76 1.7 W 4 6 2 3 - - 0.0
29/12:00am 7.9 5.7 3.4 73 1.9 WNW 4 7 2 4 - - 0.0
 
Date/Time
EST
Temp
°C
App
Temp
°C
Dew
Point
°C
Rel
Hum
%
Delta-T
°C
Wind Press
QNH
hPa
Press
MSL
hPa
Rain since
9am
mm
Dir  Spd
km/h
Gust
km/h
Spd
kts
Gust
kts
28/11:30pm 8.4 5.6 3.3 70 2.2 WNW 7 13 4 7 - - 0.0
28/11:00pm 9.6 6.8 3.4 65 2.7 WNW 7 11 4 6 - - 0.0
28/10:30pm 10.7 7.9 3.3 60 3.2 W 7 15 4 8 - - 0.0
28/10:00pm 11.2 7.7 3.7 60 3.3 WNW 11 24 6 13 - - 0.0
28/09:30pm 11.4 7.8 3.2 57 3.6 W 11 17 6 9 - - 0.0
28/09:00pm 11.8 7.9 3.3 56 3.7 SW 13 24 7 13 - - 0.0
28/08:30pm 11.5 8.9 3.3 57 3.6 W 6 13 3 7 - - 0.0
28/08:00pm 12.3 9.1 3.3 54 4.0 WSW 9 15 5 8 - - 0.0
28/07:30pm 12.2 9.4 3.2 54 4.0 WSW 7 15 4 8 - - 0.0
28/07:00pm 12.6 10.1 3.8 55 3.9 WNW 6 9 3 5 - - 0.0
28/06:30pm 13.6 10.5 3.4 50 4.6 SW 9 15 5 8 - - 0.0
28/06:00pm 14.3 11.3 4.0 50 4.7 WSW 9 15 5 8 - - 0.0
28/05:30pm 15.5 11.8 4.6 48 5.1 SW 13 20 7 11 - - 0.0
28/05:00pm 15.9 13.6 5.8 51 4.9 W 7 11 4 6 - - 0.0
28/04:30pm 17.1 15.0 6.6 50 5.2 NW 7 11 4 6 - - 0.0
28/04:00pm 18.4 15.6 5.3 42 6.4 NW 9 13 5 7 - - 0.0
28/03:30pm 19.0 15.5 5.5 41 6.6 NW 13 17 7 9 - - 0.0
28/03:00pm 19.6 17.1 6.4 42 6.6 WNW 9 17 5 9 - - 0.0
28/02:30pm 19.1 15.7 5.9 42 6.5 NW 13 22 7 12 - - 0.0
28/02:00pm 18.7 15.1 4.8 40 6.7 WNW 13 20 7 11 - - 0.0
28/01:30pm 18.4 15.2 5.3 42 6.4 NW 11 19 6 10 - - 0.0
28/01:00pm 18.0 14.8 5.2 43 6.2 NW 11 17 6 9 - - 0.0
28/12:30pm 17.3 14.7 6.2 48 5.4 WNW 9 20 5 11 - - 0.0
28/12:00pm 17.0 14.2 7.1 52 4.9 WNW 11 20 6 11 - - 0.0
28/11:30am 16.3 13.2 5.6 49 5.1 NW 11 19 6 10 - - 0.0
28/11:00am 15.4 12.4 4.2 47 5.2 WNW 9 17 5 9 - - 0.0
28/10:30am 14.7 11.9 5.2 53 4.5 W 9 17 5 9 - - 0.0
28/10:00am 13.7 10.0 4.6 54 4.2 WNW 13 26 7 14 - - 0.0
28/09:30am 12.9 9.9 4.3 56 3.9 WNW 9 17 5 9 - - 0.0
28/09:00am 11.9 9.3 4.4 60 3.4 W 7 13 4 7 - - 0.0
28/08:30am 10.4 8.4 4.5 67 2.6 WNW 4 11 2 6 - - 0.0
28/08:00am 8.5 6.3 5.4 81 1.4 NW 6 9 3 5 - - 0.0
28/07:30am 6.0 4.4 4.5 90 0.6 W 2 6 1 3 - - 0.0
28/07:00am 5.6 3.9 3.8 88 0.8 W 2 6 1 3 - - 0.0
28/06:30am 5.6 4.2 3.6 87 0.8 CALM 0 0 0 0 - - 0.0
28/06:00am 5.7 3.9 3.4 85 1.0 W 2 7 1 4 - - 0.0
28/05:30am 6.5 3.9 4.2 85 1.0 W 7 11 4 6 - - 0.0
28/05:00am 6.6 3.7 4.4 86 0.9 WNW 9 13 5 7 - - 0.0
28/04:30am 7.4 5.3 4.0 79 1.5 WNW 4 9 2 5 - - 0.0
28/04:00am 7.7 4.4 4.7 81 1.3 NW 11 15 6 8 - - 0.0
28/03:30am 8.3 5.9 5.1 80 1.4 NW 7 9 4 5 - - 0.0
28/03:00am 9.0 6.1 4.6 74 1.9 WNW 9 13 5 7 - - 0.0
28/02:30am 10.1 6.5 4.9 70 2.3 WNW 13 19 7 10 - - 0.0
28/02:00am 9.3 6.1 5.3 76 1.8 WNW 11 17 6 9 - - 0.0
28/01:30am 8.3 5.5 5.2 81 1.4 NW 9 13 5 7 - - 0.0
28/01:00am 8.8 7.2 4.6 75 1.9 WNW 2 7 1 4 - - 0.0
28/12:30am 8.3 5.5 5.2 81 1.4 WNW 9 13 5 7 - - 0.0
28/12:00am 7.4 5.0 5.4 87 0.9 WNW 7 11 4 6 - - 0.0
 
Date/Time
EST
Temp
°C
App
Temp
°C
Dew
Point
°C
Rel
Hum
%
Delta-T
°C
Wind Press
QNH
hPa
Press
MSL
hPa
Rain since
9am
mm
Dir  Spd
km/h
Gust
km/h
Spd
kts
Gust
kts
27/11:30pm 6.3 5.2 5.1 92 0.5 CALM 0 0 0 0 - - 0.0
27/11:00pm 6.8 5.8 5.4 91 0.6 CALM 0 0 0 0 - - 0.0
27/10:30pm 7.4 5.2 5.5 88 0.8 N 6 9 3 5 - - 0.0
27/10:00pm 8.3 7.2 5.1 80 1.4 CALM 0 7 0 4 - - 0.0
27/09:30pm 7.8 5.4 5.4 85 1.1 NW 7 9 4 5 - - 0.0
27/09:00pm 8.3 6.1 5.4 82 1.3 N 6 7 3 4 - - 0.0
27/08:30pm 9.3 7.5 5.3 76 1.8 NNW 4 6 2 3 - - 0.0
27/08:00pm 11.0 8.8 5.3 68 2.6 WNW 6 7 3 4 - - 0.0
27/07:30pm 11.9 9.4 4.9 62 3.2 WNW 7 11 4 6 - - 0.0

Other Formats:

Comma delimited format used in spreadsheet applications
http://www.bom.gov.au/fwo/IDN60801/IDN60801.95765.axf

JavaScript Object Notation format (JSON) in row-major order
http://www.bom.gov.au/fwo/IDN60801/IDN60801.95765.json